^^
Meteo Knjazevac Station Historical Data
Daily Summary for September 30, 2022 Units:  Both    English   Metric
Daily Weekly Monthly Yearly Custom
  High: Low: Average:
Temperature: 60.4 °F /  15.8 °C 57.9 °F /  14.4 °C 58.8 °F /  14.9 °C
Dew Point: 57.8 °F /  14.3 °C 56.1 °F /  13.4 °C 56.7 °F /  13.7 °C
Humidity: 95% 89% 93%
Wind Speed: 6.9mph /  11.1km/h - 3.1mph /  5km/h
Wind Gust: 8mph /  12.9km/h - -
Wind- - South
Pressure: 29.94 in /  1013.8 hPa 29.92 in /  1013.1 hPa -
Precipitation: 0.00 in /  0 mm    
Historical Graphs
 
 
Tabular Data for September 30, 2022
Time Temperature Dew Point Pressure Wind Wind Speed Wind Gust Humidity Rainfall Rate (Hourly) solar Conditions
00:04 60.1 °F /  15.6 °C 56.8 °F /  13.8 °C 29.92in /  1013.1hPa NW 0.9mph /  1.4km/h 2mph /  3.2km/h 89% 0.00in /  0mm 0 W/m2
00:09 59.8 °F /  15.4 °C 56.6 °F /  13.7 °C 29.92in /  1013.1hPa NNW 1.7mph /  2.7km/h 2.2mph /  3.5km/h 89% 0.00in /  0mm 0 W/m2
00:14 59.5 °F /  15.3 °C 56.5 °F /  13.6 °C 29.92in /  1013.1hPa NNW 2.3mph /  3.7km/h 2mph /  3.2km/h 89.8% 0.00in /  0mm 0 W/m2
00:19 59 °F /  15 °C 56.1 °F /  13.4 °C 29.92in /  1013.1hPa NNW 1.8mph /  2.9km/h 3mph /  4.8km/h 90.2% 0.00in /  0mm 0 W/m2
00:24 58.6 °F /  14.8 °C 56.1 °F /  13.4 °C 29.92in /  1013.1hPa North 1.4mph /  2.3km/h 2mph /  3.2km/h 91.2% 0.00in /  0mm 0 W/m2
00:29 58.5 °F /  14.7 °C 56.4 °F /  13.6 °C 29.92in /  1013.1hPa NNW 1.3mph /  2.1km/h 2mph /  3.2km/h 92.9% 0.00in /  0mm 0 W/m2
00:34 58.2 °F /  14.6 °C 56.2 °F /  13.4 °C 29.93in /  1013.4hPa North 3.7mph /  6km/h 3.6mph /  5.8km/h 93.1% 0.00in /  0mm 0 W/m2
00:39 58.2 °F /  14.6 °C 56.5 °F /  13.6 °C 29.93in /  1013.4hPa NNE 3.4mph /  5.5km/h 5mph /  8km/h 93.9% 0.00in /  0mm 0 W/m2
00:44 58.4 °F /  14.7 °C 56.3 °F /  13.5 °C 29.93in /  1013.4hPa NNE 4.3mph /  6.9km/h 4.2mph /  6.8km/h 93% 0.00in /  0mm 0 W/m2
00:49 58.5 °F /  14.7 °C 56.5 °F /  13.6 °C 29.93in /  1013.4hPa NE 3.5mph /  5.6km/h 6mph /  9.7km/h 93% 0.00in /  0mm 0 W/m2
00:54 58.6 °F /  14.8 °C 56.5 °F /  13.6 °C 29.93in /  1013.4hPa NE 4.4mph /  7.1km/h 4.7mph /  7.6km/h 93% 0.00in /  0mm 0 W/m2
00:59 58.5 °F /  14.7 °C 56.4 °F /  13.6 °C 29.93in /  1013.4hPa NE 3.7mph /  6km/h 6mph /  9.7km/h 93% 0.00in /  0mm 0 W/m2
01:04 58.6 °F /  14.8 °C 56.6 °F /  13.7 °C 29.93in /  1013.4hPa ENE 4.1mph /  6.6km/h 4mph /  6.4km/h 93% 0.00in /  0mm 0 W/m2
01:09 58.6 °F /  14.8 °C 56.6 °F /  13.7 °C 29.93in /  1013.4hPa East 3mph /  4.8km/h 6mph /  9.7km/h 93% 0.00in /  0mm 0 W/m2
01:14 58.8 °F /  14.9 °C 56.6 °F /  13.7 °C 29.93in /  1013.4hPa East 3.8mph /  6.1km/h 3.1mph /  5km/h 92.5% 0.00in /  0mm 0 W/m2
01:19 59.1 °F /  15.1 °C 56.5 °F /  13.6 °C 29.93in /  1013.4hPa ESE 3.6mph /  5.8km/h 6mph /  9.7km/h 91.1% 0.00in /  0mm 0 W/m2
01:24 59.2 °F /  15.1 °C 56.6 °F /  13.7 °C 29.93in /  1013.4hPa SE 2.5mph /  4km/h 5mph /  8km/h 91% 0.00in /  0mm 0 W/m2
01:29 58.9 °F /  14.9 °C 56.3 °F /  13.5 °C 29.93in /  1013.4hPa SW 2.2mph /  3.5km/h 4mph /  6.4km/h 91.2% 0.00in /  0mm 0 W/m2
01:34 58.6 °F /  14.8 °C 56.5 °F /  13.6 °C 29.93in /  1013.4hPa ENE 3.2mph /  5.1km/h 3mph /  4.8km/h 92.9% 0.00in /  0mm 0 W/m2
01:39 58.5 °F /  14.7 °C 56.6 °F /  13.7 °C 29.94in /  1013.8hPa ENE 1.6mph /  2.6km/h 5mph /  8km/h 93.4% 0.00in /  0mm 0 W/m2
01:44 58.3 °F /  14.6 °C 56.6 °F /  13.7 °C 29.94in /  1013.8hPa NW 2.9mph /  4.7km/h 2.7mph /  4.3km/h 94% 0.00in /  0mm 0 W/m2
01:49 58.1 °F /  14.5 °C 56.4 °F /  13.6 °C 29.94in /  1013.8hPa NW 3.1mph /  5km/h 4mph /  6.4km/h 94% 0.00in /  0mm 0 W/m2
01:54 57.9 °F /  14.4 °C 56.2 °F /  13.4 °C 29.94in /  1013.8hPa NW 2.6mph /  4.2km/h 5mph /  8km/h 94.1% 0.00in /  0mm 0 W/m2
01:59 57.9 °F /  14.4 °C 56.4 °F /  13.6 °C 29.94in /  1013.8hPa WNW 2.2mph /  3.5km/h 3mph /  4.8km/h 94.8% 0.00in /  0mm 0 W/m2
02:04 58 °F /  14.4 °C 56.6 °F /  13.7 °C 29.94in /  1013.8hPa SW 2.5mph /  4km/h 3mph /  4.8km/h 95% 0.00in /  0mm 0 W/m2
02:09 58.2 °F /  14.6 °C 56.8 °F /  13.8 °C 29.94in /  1013.8hPa South 2.9mph /  4.7km/h 3mph /  4.8km/h 95% 0.00in /  0mm 0 W/m2
02:14 58.5 °F /  14.7 °C 57 °F /  13.9 °C 29.94in /  1013.8hPa ESE 2.8mph /  4.5km/h 4mph /  6.4km/h 95% 0.00in /  0mm 0 W/m2
02:19 58.6 °F /  14.8 °C 57 °F /  13.9 °C 29.94in /  1013.8hPa ENE 2.6mph /  4.2km/h 4mph /  6.4km/h 94.4% 0.00in /  0mm 0 W/m2
02:24 58.7 °F /  14.8 °C 57.1 °F /  13.9 °C 29.93in /  1013.4hPa NE 2.8mph /  4.5km/h 3mph /  4.8km/h 94.3% 0.00in /  0mm 0 W/m2
02:29 58.8 °F /  14.9 °C 57.4 °F /  14.1 °C 29.93in /  1013.4hPa NNE 2.1mph /  3.4km/h 3mph /  4.8km/h 95% 0.00in /  0mm 0 W/m2
02:34 58.9 °F /  14.9 °C 57.4 °F /  14.1 °C 29.93in /  1013.4hPa East 5.8mph /  9.3km/h 4.5mph /  7.2km/h 94.5% 0.00in /  0mm 0 W/m2
02:39 59.7 °F /  15.4 °C 57.8 °F /  14.3 °C 29.93in /  1013.4hPa ESE 6.9mph /  11.1km/h 7mph /  11.3km/h 93.5% 0.00in /  0mm 0 W/m2
02:44 60.4 °F /  15.8 °C 57.8 °F /  14.3 °C 29.92in /  1013.1hPa ESE 6mph /  9.7km/h 8mph /  12.9km/h 91.3% 0.00in /  0mm 0 W/m2
02:49 60.4 °F /  15.8 °C 57.8 °F /  14.3 °C 29.92in /  1013.1hPa SSE 2.8mph /  4.5km/h 7mph /  11.3km/h 91% 0.00in /  0mm 0 W/m2
02:54 60.3 °F /  15.7 °C 57.6 °F /  14.2 °C 29.92in /  1013.1hPa West 3mph /  4.8km/h 3mph /  4.8km/h 91% 0.00in /  0mm 0 W/m2
Knjazevac, Serbia
Compliments of Weather Underground - 2 mb